Time;durP1;ratioP1;P1;durP2;ratioP2;P2;SDS_P1;SDS_P2;PMS_P1;PMS_P2;Temp;Humidity;BMP_temperature;BMP_pressure;BME280_temperature;BME280_humidity;BME280_pressure;Samples;Min_cycle;Max_cycle;Signal;HPM_P1;HPM_P2
2022/05/21 00:02:11;;;;;;;12.20;9.70;;;;;;;11.34;nan;100639.44;10500846;28;20051;-78
2022/05/21 00:07:14;;;;;;;7.35;6.50;;;;;;;10.67;nan;100646.44;10501621;28;20143;-79
2022/05/21 00:12:17;;;;;;;;;;;;;;;10.95;nan;100650.50;10507433;28;21317;-78
2022/05/21 00:17:21;;;;;;;8.88;6.38;;;;;;;11.11;nan;100655.53;10499733;28;20057;-78
2022/05/21 00:22:24;;;;;;;8.30;6.93;;;;;;;11.26;nan;100658.88;10497286;28;20056;-78
2022/05/21 00:27:27;;;;;;;;;;;;;;;11.31;nan;100655.81;10495873;28;21309;-79
2022/05/21 00:32:31;;;;;;;8.15;6.28;;;;;;;10.94;nan;100673.00;10496683;28;21515;-78
2022/05/21 00:37:34;;;;;;;10.30;5.72;;;;;;;11.06;nan;100657.72;10494728;28;20127;-78
2022/05/21 00:42:42;;;;;;;;;;;;;;;11.32;nan;100671.81;10496873;28;20803;-78
2022/05/21 00:47:46;;;;;;;25.95;6.45;;;;;;;11.24;nan;100683.22;10496314;28;19989;-78
2022/05/21 00:52:51;;;;;;;8.85;6.45;;;;;;;11.32;nan;100677.19;10494478;28;20084;-78
2022/05/21 01:03:18;;;;;;;8.57;5.90;;;;;;;10.87;nan;100679.81;10497020;28;20132;-78
2022/05/21 01:08:21;;;;;;;13.70;5.35;;;;;;;11.26;nan;100694.69;10496267;28;20052;-78
2022/05/21 01:13:29;;;;;;;8.95;5.88;;;;;;;11.20;nan;100703.22;10496169;28;20048;-78
2022/05/21 01:18:33;;;;;;;8.85;6.60;;;;;;;11.17;nan;100702.63;10488263;28;20044;-78
2022/05/21 01:23:37;;;;;;;5.20;4.70;;;;;;;10.91;nan;100708.16;10493982;28;20182;-78
2022/05/21 01:28:41;;;;;;;8.18;5.78;;;;;;;11.24;nan;100712.78;10495884;28;20047;-78
2022/05/21 01:33:45;;;;;;;7.22;5.10;;;;;;;10.95;nan;100712.34;10499013;28;20082;-78
2022/05/21 01:38:49;;;;;;;12.20;6.65;;;;;;;11.14;nan;100716.31;10497136;28;20504;-78
2022/05/21 01:49:13;;;;;;;10.05;6.72;;;;;;;10.82;nan;100712.41;10498244;28;20118;-79
2022/05/21 01:54:17;;;;;;;;;;;;;;;11.07;nan;100710.50;10501336;28;20406;-79
2022/05/21 01:59:20;;;;;;;12.98;8.13;;;;;;;10.48;nan;100715.97;10490981;28;20362;-78
2022/05/21 02:04:23;;;;;;;17.52;11.07;;;;;;;10.96;nan;100708.66;10495414;28;20040;-78
2022/05/21 02:09:27;;;;;;;17.52;12.48;;;;;;;10.94;nan;100705.25;10494725;28;20056;-78
2022/05/21 02:14:30;;;;;;;18.65;13.57;;;;;;;10.74;nan;100717.50;10496689;28;20055;-79
2022/05/21 02:19:33;;;;;;;22.98;11.57;;;;;;;10.74;nan;100706.78;10510801;28;20523;-78
2022/05/21 02:24:38;;;;;;;19.17;11.07;;;;;;;10.45;nan;100709.00;10497572;28;20127;-78
2022/05/21 02:29:42;;;;;;;19.73;12.70;;;;;;;10.67;nan;100718.09;10497097;28;21163;-79
2022/05/21 02:34:45;;;;;;;19.17;11.32;;;;;;;10.35;nan;100710.66;10491292;28;20048;-78
2022/05/21 02:39:49;;;;;;;;;;;;;;;10.34;nan;100712.50;10502690;28;20048;-78
2022/05/21 02:44:52;;;;;;;17.23;14.52;;;;;;;10.57;nan;100709.91;10504122;28;19923;-78
2022/05/21 02:49:54;;;;;;;;;;;;;;;10.60;nan;100704.28;10503436;28;20056;-78
2022/05/21 02:54:59;;;;;;;24.63;17.02;;;;;;;10.68;nan;100706.41;10502370;28;21150;-78
2022/05/21 03:00:02;;;;;;;22.20;12.88;;;;;;;10.89;nan;100706.56;10506387;28;20059;-78
2022/05/21 03:05:06;;;;;;;18.58;14.40;;;;;;;11.08;nan;100698.81;10501478;28;20062;-78
2022/05/21 03:10:24;;;;;;;24.70;15.77;;;;;;;11.02;nan;100691.19;10500763;28;20047;-78
2022/05/21 03:15:30;;;;;;;25.38;17.58;;;;;;;11.46;nan;100692.22;10460880;28;20063;-77
2022/05/21 03:20:33;;;;;;;24.40;15.88;;;;;;;11.10;nan;100690.59;10481576;28;20089;-78
2022/05/21 03:25:37;;;;;;;24.67;15.45;;;;;;;11.51;nan;100703.47;10500846;28;20055;-78
2022/05/21 03:30:41;;;;;;;21.02;13.60;;;;;;;10.89;nan;100698.50;10503080;28;20556;-79
2022/05/21 03:35:44;;;;;;;25.98;19.17;;;;;;;11.15;nan;100691.13;10504355;28;20060;-79
2022/05/21 03:40:48;;;;;;;28.50;18.92;;;;;;;10.94;nan;100689.13;10507066;28;20052;-79
2022/05/21 03:45:51;;;;;;;26.23;19.00;;;;;;;11.20;nan;100684.41;10504647;28;20058;-79
2022/05/21 03:50:55;;;;;;;28.17;18.60;;;;;;;11.42;nan;100688.94;10500586;28;20087;-78
2022/05/21 03:55:59;;;;;;;;;;;;;;;11.57;nan;100686.84;10499294;28;20047;-78
2022/05/21 04:01:02;;;;;;;41.67;24.08;;;;;;;10.96;nan;100679.09;10500283;28;21588;-77
2022/05/21 04:06:05;;;;;;;39.03;24.98;;;;;;;11.18;nan;100686.34;10498848;28;20257;-79
2022/05/21 04:11:10;;;;;;;41.92;30.80;;;;;;;11.19;nan;100684.53;10500728;28;20138;-78
2022/05/21 04:16:13;;;;;;;39.78;27.92;;;;;;;11.41;nan;100679.19;10498894;28;20059;-77
2022/05/21 04:21:15;;;;;;;36.55;24.80;;;;;;;11.07;nan;100686.31;10500280;28;20066;-75
2022/05/21 04:26:19;;;;;;;;;;;;;;;11.09;nan;100686.22;10498967;28;20047;-75
2022/05/21 04:31:22;;;;;;;24.35;15.98;;;;;;;11.03;nan;100701.00;10504978;28;19930;-78
2022/05/21 04:36:25;;;;;;;28.33;20.23;;;;;;;10.64;nan;100694.16;10499190;28;20051;-78
2022/05/21 04:41:29;;;;;;;;;;;;;;;11.12;nan;100702.97;10498706;28;20078;-78
2022/05/21 04:46:33;;;;;;;31.85;24.33;;;;;;;10.91;nan;100710.84;10497997;28;19949;-78
2022/05/21 04:51:38;;;;;;;37.15;24.67;;;;;;;11.32;nan;100717.53;10496877;28;20067;-78
2022/05/21 04:56:42;;;;;;;25.05;18.77;;;;;;;11.51;nan;100700.78;10474322;28;20055;-77
2022/05/21 05:01:45;;;;;;;31.25;21.90;;;;;;;10.99;nan;100699.50;10496202;28;20075;-77
2022/05/21 05:06:48;;;;;;;22.95;15.40;;;;;;;10.79;nan;100703.75;10495833;28;20121;-78
2022/05/21 05:11:53;;;;;;;29.92;18.98;;;;;;;10.88;nan;100703.03;10495897;28;20794;-77
2022/05/21 05:16:56;;;;;;;23.92;16.73;;;;;;;11.03;nan;100711.75;10497083;28;20098;-77
2022/05/21 05:21:59;;;;;;;27.48;20.33;;;;;;;11.10;nan;100737.16;10495181;28;20170;-78
2022/05/21 05:27:03;;;;;;;;;;;;;;;11.15;nan;100724.25;10487762;28;20055;-78
2022/05/21 05:32:07;;;;;;;31.65;19.75;;;;;;;11.41;nan;100722.22;10498181;28;20320;-78
2022/05/21 05:37:10;;;;;;;22.77;14.75;;;;;;;11.25;nan;100727.09;10495214;28;20048;-77
2022/05/21 05:42:16;;;;;;;28.50;16.70;;;;;;;11.40;nan;100722.31;10494275;28;20067;-79
2022/05/21 05:47:19;;;;;;;23.95;17.13;;;;;;;11.46;nan;100727.19;10491944;28;20040;-79
2022/05/21 05:52:22;;;;;;;27.08;16.00;;;;;;;11.28;nan;100716.94;10498149;28;20256;-78
2022/05/21 05:57:26;;;;;;;25.70;16.65;;;;;;;11.59;nan;100725.25;10495105;28;20052;-77
2022/05/21 06:07:52;;;;;;;25.23;18.63;;;;;;;11.57;nan;100737.13;10494164;28;20221;-79
2022/05/21 06:12:56;;;;;;;32.00;22.17;;;;;;;11.56;nan;100738.94;10497535;28;20052;-78
2022/05/21 06:17:59;;;;;;;31.60;21.05;;;;;;;11.20;nan;100730.13;10504003;28;20056;-79
2022/05/21 06:23:02;;;;;;;25.20;16.98;;;;;;;11.44;nan;100742.63;10501009;28;20601;-78
2022/05/21 06:28:08;;;;;;;25.63;17.17;;;;;;;11.43;nan;100754.34;10499482;28;20071;-77
2022/05/21 06:33:13;;;;;;;32.13;21.75;;;;;;;11.51;nan;100743.84;10500633;28;20055;-77
2022/05/21 06:38:16;;;;;;;25.63;15.30;;;;;;;12.41;nan;100735.66;10500222;28;20124;-78
2022/05/21 06:43:22;;;;;;;17.50;11.50;;;;;;;12.52;nan;100735.63;10501100;28;20040;-78
2022/05/21 06:48:25;;;;;;;27.83;14.25;;;;;;;12.57;nan;100743.34;10502359;28;20128;-78
2022/05/21 06:53:28;;;;;;;23.75;13.82;;;;;;;13.15;nan;100738.34;10501932;28;21217;-77
2022/05/21 06:58:32;;;;;;;18.85;14.05;;;;;;;12.70;nan;100749.41;10501550;28;20048;-80
2022/05/21 07:03:40;;;;;;;17.17;11.40;;;;;;;12.30;nan;100746.47;10503116;28;20048;-78
2022/05/21 07:08:43;;;;;;;21.73;11.40;;;;;;;12.75;nan;100749.00;10501664;28;20115;-76
2022/05/21 07:13:47;;;;;;;9.82;6.82;;;;;;;12.44;nan;100756.97;10510719;28;20051;-79
2022/05/21 07:18:50;;;;;;;19.33;11.15;;;;;;;12.88;nan;100746.97;10501916;28;20090;-78
2022/05/21 07:23:54;;;;;;;16.70;10.85;;;;;;;13.11;nan;100752.22;10476673;28;20538;-77
2022/05/21 07:29:00;;;;;;;14.75;11.18;;;;;;;13.17;nan;100757.13;10463523;28;20052;-77
2022/05/21 07:34:09;;;;;;;16.98;10.43;;;;;;;12.77;nan;100750.56;10484401;28;20532;-78
2022/05/21 07:39:12;;;;;;;17.13;9.73;;;;;;;12.71;nan;100761.88;10501089;28;20058;-77
2022/05/21 07:44:17;;;;;;;21.40;9.52;;;;;;;13.23;nan;100762.84;10500275;28;20047;-78
2022/05/21 07:49:20;;;;;;;16.15;10.10;;;;;;;13.48;nan;100758.88;10496400;28;20459;-78
2022/05/21 07:54:23;;;;;;;13.23;9.00;;;;;;;13.63;nan;100759.41;10497680;28;20161;-77
2022/05/21 07:59:27;;;;;;;19.27;8.65;;;;;;;14.52;nan;100759.50;10493388;28;20133;-77
2022/05/21 08:04:30;;;;;;;14.90;7.63;;;;;;;14.06;nan;100762.81;10499712;28;20056;-77
2022/05/21 08:09:33;;;;;;;17.42;7.72;;;;;;;13.59;nan;100760.63;10496536;28;20414;-77
2022/05/21 08:14:37;;;;;;;18.67;8.43;;;;;;;13.09;nan;100767.72;10497455;28;20060;-78
2022/05/21 08:19:41;;;;;;;15.88;7.35;;;;;;;13.28;nan;100784.03;10495035;28;20040;-77
2022/05/21 08:30:08;;;;;;;14.48;8.52;;;;;;;13.89;nan;100781.38;10483430;28;20048;-77
2022/05/21 08:35:11;;;;;;;15.07;8.05;;;;;;;13.23;nan;100800.59;10493749;28;20150;-77
2022/05/21 08:40:16;;;;;;;22.02;9.05;;;;;;;13.14;nan;100795.16;10495918;28;20063;-77
2022/05/21 08:45:23;;;;;;;16.52;10.10;;;;;;;14.22;nan;100786.59;10496535;28;20091;-77
2022/05/21 08:50:32;;;;;;;10.52;6.65;;;;;;;14.02;nan;100773.03;10498225;28;20044;-77
2022/05/21 08:55:39;;;;;;;18.63;10.20;;;;;;;13.91;nan;100792.06;10496393;28;20143;-78
2022/05/21 09:00:46;;;;;;;16.85;8.40;;;;;;;13.25;nan;100804.03;10496887;28;20120;-77
2022/05/21 09:06:00;;;;;;;13.95;8.48;;;;;;;14.24;nan;100807.09;10479181;28;20075;-76
2022/05/21 09:11:06;;;;;;;19.67;9.93;;;;;;;15.10;nan;100806.50;10494458;28;20115;-76
2022/05/21 09:21:36;;;;;;;15.52;8.15;;;;;;;14.54;nan;100808.03;10493350;28;20543;-77
2022/05/21 09:26:48;;;;;;;15.82;7.82;;;;;;;14.20;nan;100807.50;10492470;28;20429;-77
2022/05/21 09:31:54;;;;;;;14.38;8.18;;;;;;;13.61;nan;100823.44;10488676;28;20056;-76
2022/05/21 09:36:59;;;;;;;9.55;6.82;;;;;;;13.68;nan;100832.72;10472698;28;20182;-76
2022/05/21 09:42:10;;;;;;;18.27;9.23;;;;;;;13.59;nan;100824.56;10493668;28;20058;-76
2022/05/21 09:47:22;;;;;;;16.03;8.40;;;;;;;13.54;nan;100833.06;10489205;28;20207;-78
2022/05/21 09:52:31;;;;;;;12.55;8.52;;;;;;;13.91;nan;100833.41;10494805;28;20179;-74
2022/05/21 09:57:38;;;;;;;14.93;7.63;;;;;;;14.33;nan;100840.53;10493333;28;20496;-76
2022/05/21 10:02:47;;;;;;;12.48;6.78;;;;;;;14.93;nan;100854.91;10494753;28;20090;-75
2022/05/21 10:13:17;;;;;;;14.77;7.63;;;;;;;14.69;nan;100851.75;10473493;28;20056;-76
2022/05/21 10:18:28;;;;;;;15.52;8.73;;;;;;;14.43;nan;100852.25;10490291;28;21213;-75
2022/05/21 10:23:38;;;;;;;19.20;7.45;;;;;;;14.08;nan;100856.22;10478796;28;20040;-76
2022/05/21 10:28:54;;;;;;;10.05;7.60;;;;;;;14.96;nan;100845.66;10493536;28;20082;-76
2022/05/21 10:34:19;;;;;;;19.17;7.85;;;;;;;14.82;nan;100855.88;10492185;28;20075;-76
2022/05/21 10:39:35;;;;;;;18.52;7.85;;;;;;;15.07;nan;100850.06;10483045;28;20109;-75
2022/05/21 10:44:52;;;;;;;12.00;6.43;;;;;;;14.91;nan;100853.34;10492393;28;20505;-75
2022/05/21 10:50:27;;;;;;;11.65;6.18;;;;;;;14.83;nan;100854.88;10493911;28;20146;-74
2022/05/21 10:55:38;;;;;;;12.35;6.43;;;;;;;14.92;nan;100865.84;10477826;28;20047;-76
2022/05/21 11:00:50;;;;;;;16.02;8.18;;;;;;;15.31;nan;100860.47;10498706;28;20044;-76
2022/05/21 11:06:22;;;;;;;16.83;7.45;;;;;;;16.55;nan;100859.38;10502660;28;20052;-77
2022/05/21 11:11:49;;;;;;;15.07;7.80;;;;;;;16.35;nan;100859.50;10495703;28;20126;-76
2022/05/21 11:16:57;;;;;;;15.88;5.80;;;;;;;18.24;nan;100850.25;10495920;28;20093;-75
2022/05/21 11:22:08;;;;;;;12.05;5.95;;;;;;;16.91;nan;100856.72;10499358;28;20036;-74
2022/05/21 11:27:18;;;;;;;12.43;6.53;;;;;;;16.80;nan;100849.66;10501151;28;20072;-76
2022/05/21 11:37:50;;;;;;;15.07;6.45;;;;;;;17.66;nan;100833.63;10498734;28;20724;-77
2022/05/21 11:42:53;;;;;;;11.75;5.75;;;;;;;18.94;nan;100842.66;10496623;28;20048;-76
2022/05/21 11:48:13;;;;;;;11.65;6.03;;;;;;;17.06;nan;100859.72;10497422;28;20107;-76
2022/05/21 11:53:45;;;;;;;13.32;5.65;;;;;;;16.67;nan;100854.59;10498331;28;20047;-75
2022/05/21 11:59:24;;;;;;;14.32;5.47;;;;;;;16.39;nan;100845.63;10476990;28;20086;-78
2022/05/21 12:04:49;;;;;;;12.65;6.00;;;;;;;16.96;nan;100860.69;10495558;28;20052;-75
2022/05/21 12:10:03;;;;;;;13.32;6.78;;;;;;;17.64;nan;100841.09;10497138;28;20052;-76
2022/05/21 12:15:16;;;;;;;14.55;7.53;;;;;;;17.49;nan;100856.25;10495589;28;20147;-76
2022/05/21 12:20:41;;;;;;;8.98;6.30;;;;;;;15.96;nan;100861.47;10496214;28;20044;-76
2022/05/21 12:26:00;;;;;;;10.80;5.53;;;;;;;15.80;nan;100861.28;10492932;28;20044;-76
2022/05/21 12:31:08;;;;;;;13.55;7.47;;;;;;;16.26;nan;100854.13;10495618;28;20052;-76
2022/05/21 12:36:29;;;;;;;14.80;7.93;;;;;;;15.95;nan;100853.50;10492270;28;20064;-75
2022/05/21 12:41:37;;;;;;;14.38;6.93;;;;;;;15.17;nan;100859.91;10496260;28;20454;-76
2022/05/21 12:46:42;;;;;;;12.13;6.88;;;;;;;15.75;nan;100842.75;10494483;28;20044;-76
2022/05/21 12:51:50;;;;;;;18.13;7.18;;;;;;;15.39;nan;100850.66;10495375;28;20048;-76
2022/05/21 12:56:56;;;;;;;8.27;6.70;;;;;;;15.58;nan;100843.50;10492985;28;20376;-76
2022/05/21 13:02:03;;;;;;;13.02;6.82;;;;;;;15.53;nan;100848.50;10492039;28;20044;-75
2022/05/21 13:07:13;;;;;;;15.52;7.80;;;;;;;15.46;nan;100869.88;10491919;28;20039;-76
2022/05/21 13:12:18;;;;;;;14.40;7.07;;;;;;;14.81;nan;100873.13;10494224;28;20567;-76
2022/05/21 13:17:35;;;;;;;8.60;4.82;;;;;;;15.08;nan;100886.94;10493152;28;20051;-76
2022/05/21 13:23:00;;;;;;;17.60;5.13;;;;;;;15.98;nan;100867.59;10466195;28;20047;-76
2022/05/21 13:28:17;;;;;;;12.45;4.60;;;;;;;16.12;nan;100877.97;10492957;28;20098;-75
2022/05/21 13:33:35;;;;;;;15.88;6.25;;;;;;;15.65;nan;100877.97;10494763;28;20690;-76
2022/05/21 13:38:41;;;;;;;17.48;6.50;;;;;;;16.49;nan;100871.69;10497676;28;20044;-76
2022/05/21 13:43:48;;;;;;;15.98;7.20;;;;;;;17.49;nan;100867.09;10492188;28;20048;-76
2022/05/21 13:48:55;;;;;;;11.73;5.88;;;;;;;17.12;nan;100878.97;10491210;28;20048;-76
2022/05/21 13:53:58;;;;;;;12.90;6.50;;;;;;;16.67;nan;100869.00;10491201;28;20051;-76
2022/05/21 13:59:11;;;;;;;17.15;6.45;;;;;;;16.71;nan;100867.72;10493597;28;20056;-75
2022/05/21 14:04:30;;;;;;;14.50;4.00;;;;;;;15.84;nan;100873.50;10491277;28;20433;-75
2022/05/21 14:09:34;;;;;;;17.17;3.53;;;;;;;16.43;nan;100880.44;10490523;28;20040;-74
2022/05/21 14:14:42;;;;;;;11.63;4.75;;;;;;;16.90;nan;100871.31;10492052;28;20051;-76
2022/05/21 14:20:01;;;;;;;8.52;3.78;;;;;;;16.50;nan;100872.53;10491052;28;20047;-75
2022/05/21 14:25:38;;;;;;;8.93;4.55;;;;;;;17.43;nan;100868.59;10492497;28;20055;-75
2022/05/21 14:30:45;;;;;;;13.07;4.75;;;;;;;19.41;nan;100854.78;10389049;28;20185;-75
2022/05/21 14:35:49;;;;;;;14.98;3.78;;;;;;;17.70;nan;100843.16;10498979;28;20044;-77
2022/05/21 14:40:56;;;;;;;29.67;6.18;;;;;;;18.30;nan;100836.03;10500201;28;20044;-75
2022/05/21 14:46:00;;;;;;;12.93;3.90;;;;;;;18.29;nan;100837.91;10499387;28;20048;-76
2022/05/21 14:56:28;;;;;;;13.52;5.28;;;;;;;17.54;nan;100853.06;10497956;28;20505;-77
2022/05/21 15:01:32;;;;;;;12.38;5.65;;;;;;;19.15;nan;100842.19;10501223;28;20251;-77
2022/05/21 15:06:38;;;;;;;8.35;3.70;;;;;;;18.63;nan;100849.75;10499056;28;20110;-77
2022/05/21 15:11:47;;;;;;;7.07;3.10;;;;;;;18.16;nan;100842.09;10491614;28;20052;-77
2022/05/21 15:16:52;;;;;;;10.75;3.65;;;;;;;16.95;nan;100842.69;10498202;28;20063;-77
2022/05/21 15:21:58;;;;;;;8.98;3.55;;;;;;;16.98;nan;100855.97;10501313;28;20178;-77
2022/05/21 15:27:00;;;;;;;10.82;3.80;;;;;;;16.90;nan;100853.16;10498547;28;20052;-78
2022/05/21 15:32:09;;;;;;;8.65;3.20;;;;;;;17.29;nan;100836.56;10499415;23;20052;-77
2022/05/21 15:37:12;;;;;;;8.40;2.72;;;;;;;18.82;nan;100835.88;10497167;28;20145;-77
2022/05/21 15:42:16;;;;;;;9.90;3.10;;;;;;;17.62;nan;100836.81;10539524;28;20503;-77
2022/05/21 15:47:21;;;;;;;10.20;3.40;;;;;;;18.26;nan;100831.91;10523504;28;20454;-77
2022/05/21 15:52:27;;;;;;;9.65;3.42;;;;;;;18.80;nan;100822.41;10539344;28;20461;-77
2022/05/21 15:57:30;;;;;;;9.73;3.15;;;;;;;19.21;nan;100819.72;10542583;28;20119;-77
2022/05/21 16:02:36;;;;;;;10.93;2.63;;;;;;;18.93;nan;100816.47;10542318;28;20416;-77
2022/05/21 16:07:41;;;;;;;8.50;2.47;;;;;;;17.97;nan;100808.69;10532303;28;20079;-77
2022/05/21 16:12:44;;;;;;;7.95;2.80;;;;;;;17.37;nan;100809.47;10541300;28;20036;-77
2022/05/21 16:17:49;;;;;;;8.93;2.78;;;;;;;17.96;nan;100808.81;10541003;28;20568;-77
2022/05/21 16:22:52;;;;;;;5.38;2.30;;;;;;;19.65;nan;100805.75;10542208;28;20489;-77
2022/05/21 16:28:00;;;;;;;8.65;2.50;;;;;;;22.25;nan;100791.38;10543364;28;20040;-78
2022/05/21 16:33:06;;;;;;;5.75;1.88;;;;;;;18.80;nan;100788.91;10551662;28;20075;-79
2022/05/21 16:38:09;;;;;;;6.00;2.10;;;;;;;17.84;nan;100772.94;10533812;28;20048;-79
2022/05/21 16:43:12;;;;;;;5.93;2.05;;;;;;;18.04;nan;100773.53;10534162;28;20032;-80
2022/05/21 16:48:21;;;;;;;5.93;1.60;;;;;;;19.32;nan;100771.38;10553097;28;20128;-80
2022/05/21 16:53:24;;;;;;;6.45;2.47;;;;;;;23.18;nan;100763.13;10551141;28;20036;-80
2022/05/21 16:58:27;;;;;;;6.82;1.60;;;;;;;22.83;nan;100764.03;10551888;28;20054;-80
2022/05/21 17:03:32;;;;;;;6.47;2.15;;;;;;;19.86;nan;100772.47;10550883;28;20039;-80
2022/05/21 17:08:35;;;;;;;7.82;1.80;;;;;;;24.17;nan;100752.97;10551064;28;20052;-80
2022/05/21 17:13:39;;;;;;;6.25;2.00;;;;;;;22.51;nan;100768.97;10551237;28;20043;-80
2022/05/21 17:18:44;;;;;;;6.22;1.80;;;;;;;22.33;nan;100763.91;10551701;28;20047;-80
2022/05/21 17:23:47;;;;;;;11.32;2.17;;;;;;;20.45;nan;100763.00;10550473;28;20089;-80
2022/05/21 17:34:12;;;;;;;10.95;2.47;;;;;;;17.79;nan;100767.13;10538711;28;20052;-80
2022/05/21 17:39:16;;;;;;;9.68;2.10;;;;;;;17.53;nan;100770.72;10553292;28;20040;-80
2022/05/21 17:44:20;;;;;;;5.65;1.90;;;;;;;17.37;nan;100776.06;10547400;28;20047;-80
2022/05/21 17:49:26;;;;;;;6.82;1.40;;;;;;;17.27;nan;100776.13;10546707;28;20067;-77
2022/05/21 17:54:29;;;;;;;6.63;2.03;;;;;;;17.31;nan;100768.56;10584495;28;20044;-78
2022/05/21 17:59:32;;;;;;;4.38;2.03;;;;;;;16.66;nan;100776.97;10565951;28;20044;-77
2022/05/21 18:04:37;;;;;;;4.93;1.25;;;;;;;16.83;nan;100767.94;10539005;28;20452;-77
2022/05/21 18:09:40;;;;;;;6.88;1.60;;;;;;;16.77;nan;100779.44;10539367;28;20118;-77
2022/05/21 18:14:42;;;;;;;5.32;1.60;;;;;;;16.58;nan;100791.28;10544766;28;20121;-77
2022/05/21 18:19:47;;;;;;;5.15;1.40;;;;;;;16.21;nan;100791.34;10543016;28;20048;-77
2022/05/21 18:24:50;;;;;;;7.82;1.20;;;;;;;16.84;nan;100799.53;10546987;28;20127;-78
2022/05/21 18:29:52;;;;;;;7.15;1.80;;;;;;;16.96;nan;100784.69;10545396;28;20123;-77
2022/05/21 18:34:57;;;;;;;4.35;1.50;;;;;;;16.92;nan;100783.31;10544978;28;20052;-77
2022/05/21 18:40:00;;;;;;;4.15;1.67;;;;;;;16.49;nan;100790.34;10536208;28;20036;-78
2022/05/21 18:45:06;;;;;;;6.50;1.50;;;;;;;16.51;nan;100790.19;10533442;28;20040;-78
2022/05/21 18:50:18;;;;;;;6.18;1.52;;;;;;;16.38;nan;100793.28;10534596;28;20033;-78
2022/05/21 18:55:21;;;;;;;2.70;1.33;;;;;;;16.23;nan;100795.59;10530270;28;20079;-78
2022/05/21 19:00:24;;;;;;;6.95;1.50;;;;;;;16.10;nan;100795.97;10536307;28;20033;-76
2022/05/21 19:05:29;;;;;;;7.28;1.70;;;;;;;16.13;nan;100794.81;10533246;28;20077;-76
2022/05/21 19:10:32;;;;;;;7.75;1.40;;;;;;;16.03;nan;100797.56;10523282;28;20739;-76
2022/05/21 19:15:36;;;;;;;5.05;1.70;;;;;;;15.91;nan;100793.34;10540759;28;20131;-76
2022/05/21 19:20:42;;;;;;;8.45;1.50;;;;;;;15.76;nan;100798.38;10537921;28;20036;-76
2022/05/21 19:25:45;;;;;;;5.20;1.50;;;;;;;15.51;nan;100791.78;10540350;28;20123;-76
2022/05/21 19:30:48;;;;;;;4.05;1.40;;;;;;;15.40;nan;100800.06;10509501;28;20057;-76
2022/05/21 19:35:53;;;;;;;7.25;1.48;;;;;;;15.25;nan;100807.78;10531615;28;20111;-76
2022/05/21 19:41:15;;;;;;;3.65;1.40;;;;;;;15.23;nan;100807.91;10529472;28;20032;-76
2022/05/21 19:46:21;;;;;;;7.75;1.75;;;;;;;15.20;nan;100826.28;10534106;28;20111;-76
2022/05/21 19:51:25;;;;;;;8.00;1.60;;;;;;;15.05;nan;100828.56;10532437;28;20040;-76
2022/05/21 19:56:28;;;;;;;7.97;1.73;;;;;;;15.09;nan;100835.41;10533866;28;20051;-76
2022/05/21 20:01:31;;;;;;;4.95;2.00;;;;;;;15.12;nan;100836.97;10537639;28;20459;-76
2022/05/21 20:06:36;;;;;;;5.03;1.95;;;;;;;15.03;nan;100833.28;10524660;28;20421;-76
2022/05/21 20:11:39;;;;;;;4.47;1.77;;;;;;;15.04;nan;100843.94;10526856;28;20063;-76
2022/05/21 20:16:42;;;;;;;5.65;1.92;;;;;;;14.97;nan;100833.81;10539373;28;20113;-76
2022/05/21 20:22:02;;;;;;;5.03;1.60;;;;;;;14.87;nan;100833.84;10538336;28;20119;-76
2022/05/21 20:27:06;;;;;;;6.10;1.67;;;;;;;14.73;nan;100832.41;10545046;28;20040;-76
2022/05/21 20:32:09;;;;;;;4.97;2.28;;;;;;;14.55;nan;100834.06;10524158;28;20051;-77
2022/05/21 20:37:17;;;;;;;9.68;1.98;;;;;;;14.31;nan;100837.09;10525691;28;20047;-77
2022/05/21 20:42:20;;;;;;;5.75;2.03;;;;;;;14.32;nan;100831.56;10535566;28;20036;-76
2022/05/21 20:49:34;;;;;;;6.03;1.98;;;;;;;14.25;nan;100830.41;10537657;28;20127;-76
2022/05/21 20:52:48;;;;;;;7.13;2.20;;;;;;;14.20;nan;100826.41;10531724;28;20067;-77
2022/05/21 20:57:51;;;;;;;5.82;2.13;;;;;;;14.14;nan;100827.81;10537677;28;20119;-76
2022/05/21 21:02:54;;;;;;;9.13;1.95;;;;;;;14.06;nan;100828.47;10539438;28;20144;-77
2022/05/21 21:07:58;;;;;;;10.10;2.65;;;;;;;13.99;nan;100832.75;10537865;28;20560;-77
2022/05/21 21:13:03;;;;;;;6.85;2.28;;;;;;;13.85;nan;100816.88;10538065;28;20442;-76
2022/05/21 21:18:06;;;;;;;9.88;2.42;;;;;;;13.77;nan;100822.97;10537919;28;20043;-77
2022/05/21 21:23:11;;;;;;;7.13;1.83;;;;;;;13.66;nan;100828.47;10538246;28;20040;-77
2022/05/21 21:28:15;;;;;;;4.35;2.00;;;;;;;13.63;nan;100831.41;10550796;22;20074;-77
2022/05/21 21:33:18;;;;;;;6.82;2.45;;;;;;;13.53;nan;100835.91;10458636;28;20123;-77
2022/05/21 21:38:22;;;;;;;6.20;2.50;;;;;;;13.46;nan;100832.88;10459535;28;20037;-77
2022/05/21 21:43:25;;;;;;;6.65;2.20;;;;;;;13.46;nan;100809.44;10448997;28;20087;-76
2022/05/21 21:48:28;;;;;;;6.72;2.20;;;;;;;13.37;nan;100815.63;10454616;28;20041;-76
2022/05/21 21:53:33;;;;;;;7.63;2.20;;;;;;;13.34;nan;100815.88;10457706;28;20072;-77
2022/05/21 22:03:59;;;;;;;6.93;2.50;;;;;;;13.17;nan;100824.56;10434975;28;20037;-76
2022/05/21 22:09:03;;;;;;;6.63;3.33;;;;;;;12.90;nan;100833.97;10454924;28;20041;-77
2022/05/21 22:14:07;;;;;;;5.10;2.53;;;;;;;12.77;nan;100833.28;10457572;28;20076;-77
2022/05/21 22:19:11;;;;;;;8.13;2.78;;;;;;;12.85;nan;100824.56;10458464;28;20048;-77
2022/05/21 22:24:16;;;;;;;6.38;3.38;;;;;;;12.80;nan;100823.09;10452114;28;20048;-76
2022/05/21 22:29:19;;;;;;;8.63;3.10;;;;;;;12.72;nan;100819.34;10450595;28;20513;-76
2022/05/21 22:34:25;;;;;;;6.22;3.80;;;;;;;12.71;nan;100810.41;10448041;28;20056;-77
2022/05/21 22:39:29;;;;;;;8.13;2.97;;;;;;;12.68;nan;100810.66;10450128;28;20095;-77
2022/05/21 22:44:33;;;;;;;11.82;3.78;;;;;;;12.71;nan;100806.84;10451175;28;20516;-76
2022/05/21 22:49:35;;;;;;;10.65;4.40;;;;;;;12.57;nan;100806.16;10450228;28;20083;-76
2022/05/21 22:54:40;;;;;;;6.78;3.50;;;;;;;12.43;nan;100801.06;10454056;28;20052;-77
2022/05/21 22:59:43;;;;;;;7.03;3.33;;;;;;;12.39;nan;100800.44;10457294;28;20079;-76
2022/05/21 23:04:46;;;;;;;10.23;3.63;;;;;;;12.36;nan;100792.59;10458035;28;20045;-76
2022/05/21 23:09:54;;;;;;;9.40;3.60;;;;;;;12.31;nan;100788.59;10455863;28;20044;-76
2022/05/21 23:20:19;;;;;;;10.73;4.82;;;;;;;11.87;nan;100772.31;10457336;28;20033;-77
2022/05/21 23:25:23;;;;;;;9.20;3.65;;;;;;;11.83;nan;100773.56;10457161;28;20462;-77
2022/05/21 23:30:26;;;;;;;9.20;3.95;;;;;;;11.66;nan;100776.75;10456381;28;20056;-77
2022/05/21 23:35:29;;;;;;;7.07;3.88;;;;;;;11.57;nan;100774.78;10455543;28;20141;-76
2022/05/21 23:40:36;;;;;;;7.82;4.07;;;;;;;11.50;nan;100775.28;10456534;28;20638;-77
2022/05/21 23:45:39;;;;;;;12.05;3.90;;;;;;;11.41;nan;100767.94;10455783;28;20082;-77
2022/05/21 23:50:42;;;;;;;10.27;4.68;;;;;;;11.53;nan;100760.72;10456498;28;20045;-77
2022/05/21 23:55:47;;;;;;;8.38;4.82;;;;;;;11.59;nan;100757.53;10456044;28;20037;-76
